Tuesday, February 20, 2018, 3:32 PM GMT
Back to Local

CYUL, Montreal / Pierre Elliot Trudeau International Airport, Que

Location: , , Canada Lat: 45.467
Local Time: 3:32 PM GMT (15:32 GMT) Lon: -73.75
Time Zone: GMT Elev: 101 ft

Show me the last for .
Show Coded

Time T Td Feel RH Dir Speed Gust Alt SLP Vis Weather Sky Remarks
2018-02-20 15:00 36 34 27 93 30° 13 - 30.15 30.16 4 -RA BR BKN004 OVC012 None
2018-02-20 14:00 34 34 24 100 30° 15 - 30.16 30.17 2 -RA BR BKN003 OVC012 None
2018-02-20 13:47 34 34 24 100 30° 15 - 30.17 30.17 2 -RA BR BKN003 OVC009 None
2018-02-20 13:39 34 34 24 100 20° 14 - 30.17 30.17 2 -RA BR BKN005 OVC011 None
2018-02-20 13:00 34 34 24 100 30° 14 - 30.17 30.17 2 -RA BR BKN003 OVC012 None
2018-02-20 12:00 34 34 25 100 30° 13 - 30.17 30.18 1 -RA BR OVC003 None
2018-02-20 11:39 36 34 27 93 20° 14 - 30.16 30.17 1 -RA BR OVC003 Pressure rising rapidly
2018-02-20 11:00 36 34 27 93 30° 13 - 30.15 30.16 2 -DZ BR OVC003 None
2018-02-20 10:53 36 34 28 93 40° 12 - 30.15 30.16 2 -DZ BR OVC003 None
2018-02-20 10:00 34 34 25 100 20° 12 - 30.15 30.16 1 -RA BR OVC002 None
2018-02-20 09:00 34 34 26 100 10° 9 - 30.14 30.15 1 -DZ BR BKN002 OVC008 None
2018-02-20 08:36 34 34 26 100 30° 9 - 30.13 30.14 1 -DZ BR BKN001 OVC006 None
2018-02-20 08:00 34 34 29 100 10° 6 - 30.14 30.14 1 -DZ BR BKN002 OVC006 None
2018-02-20 07:40 36 34 31 93 10° 6 - 30.14 30.15 1 -DZ BR BKN006 OVC025 None
2018-02-20 07:00 34 34 29 100 40° 6 - 30.13 30.14 2 -RA BR FEW007 BKN025 None
2018-02-20 06:45 36 34 30 93 40° 7 - 30.13 30.14 2 -RA BR FEW005 OVC030 None
2018-02-20 06:00 36 34 31 93 340° 6 - 30.16 30.17 2 -RA BR FEW003 OVC007 Pressure rising rapidly
2018-02-20 05:00 36 36 30 100 30° 7 - 30.14 30.14 2 -RA BR SCT004 OVC009 None
2018-02-20 04:00 36 34 32 93 40° 5 - 30.14 30.15 2 -RA BR BKN004 OVC008 Pressure falling rapidly
2018-02-20 03:31 36 36 32 100 110° 5 - 30.14 30.15 3 -DZ BR FEW004 OVC008 None
2018-02-20 03:00 36 36 32 100 110° 5 - 30.14 30.14 4 -DZ BR BKN007 OVC012 None
2018-02-20 02:52 36 34 32 93 100° 5 - 30.13 30.14 2 -RA BR SCT007 OVC018 None
2018-02-20 02:46 36 34 31 93 110° 6 - 30.13 30.14 4 -RA BR BKN009 BKN013 OVC018 Pressure falling rapidly
2018-02-20 02:37 36 34 30 93 110° 7 - 30.14 30.14 5 -RA BR FEW009 BKN013 OVC020 Pressure falling rapidly
2018-02-20 02:35 36 34 31 93 110° 6 - 30.14 30.15 6 -RA BR FEW008 BKN016 OVC022 None
2018-02-20 02:22 36 34 33 93 100° 3 - 30.15 30.16 5 -RA BR BKN012 OVC016 None
2018-02-20 02:05 37 34 35 86 100° 3 - 30.16 30.16 6 -DZ BR BKN012 OVC016 Pressure rising rapidly
2018-02-20 02:00 37 36 - 93 Variable 2 - 30.16 30.16 8 -DZ BKN012 OVC017 Pressure rising rapidly
2018-02-20 01:48 37 36 35 93 80° 3 - 30.14 30.15 8 -DZ BKN012 OVC020 None
2018-02-20 01:30 36 36 - 100 100° 2 - 30.15 30.16 10 -DZ FEW014 BKN019 OVC024 None
2018-02-20 01:20 37 36 34 93 90° 5 - 30.13 30.14 10 -DZ FEW011 SCT016 OVC022 None
2018-02-20 01:14 36 36 33 100 100° 3 - 30.13 30.14 8 -DZ BR FEW009 BKN013 OVC017 None
2018-02-20 01:09 37 36 35 93 100° 3 - 30.14 30.15 8 -DZ SCT012 OVC018 None
2018-02-20 01:00 37 36 35 93 100° 3 - 30.14 30.15 5 -RA BR FEW009 BKN012 OVC017 None
2018-02-20 00:48 36 34 32 93 110° 5 - 30.14 30.15 5 -RA BR FEW009 BKN013 OVC018 None
2018-02-20 00:35 37 34 34 86 150° 5 - 30.14 30.15 6 -RA BR BKN012 OVC018 None
2018-02-20 00:00 37 34 30 86 140° 10 - 30.15 30.16 15 -RA SCT017 OVC023 None
2018-02-19 23:00 37 34 31 86 150° 8 - 30.15 30.16 15 -RA OVC032 None
2018-02-19 22:00 39 30 34 69 190° 7 - 30.14 30.15 15 -RA FEW040 BKN055 OVC090 None
2018-02-19 21:25 41 28 34 60 170° 12 - 30.13 30.14 15 -SN FEW030 BKN047 OVC070 None
2018-02-19 21:00 41 27 35 56 140° 9 - 30.13 30.14 15 BKN075 BKN110 OVC220 None
2018-02-19 20:00 43 27 39 52 150° 7 - 30.15 30.16 15 BKN080 OVC240 None
2018-02-19 19:00 43 25 37 48 140° 9 - 30.16 30.16 30 FEW190 BKN240 None
2018-02-19 18:00 41 25 35 52 140° 10 - 30.16 30.17 30 BKN250 None
2018-02-19 17:00 39 23 32 51 150° 12 - 30.19 30.20 30 FEW180 SCT250 None

Support USWX by starting your Amazon purchase here.